createdAt,value
2017-09-07T00:01:51.466Z,87.80
2017-09-07T00:04:22.287Z,87.80
2017-09-07T00:06:52.812Z,87.80
2017-09-07T00:09:23.279Z,87.70
2017-09-07T00:11:53.815Z,87.60
2017-09-07T00:14:24.381Z,87.40
2017-09-07T00:16:55.284Z,87.30
2017-09-07T00:19:25.859Z,87.10
2017-09-07T00:21:56.360Z,86.80
2017-09-07T00:24:27.743Z,85.90
2017-09-07T00:26:58.279Z,85.90
2017-09-07T00:29:28.900Z,85.50
2017-09-07T00:31:59.465Z,85.00
2017-09-07T00:34:31.152Z,84.00
2017-09-07T00:37:01.614Z,84.00
2017-09-07T00:39:32.181Z,83.20
2017-09-07T00:42:02.778Z,82.50
2017-09-07T00:44:33.420Z,82.10
2017-09-07T00:47:04.359Z,82.20
2017-09-07T00:49:34.924Z,82.20
2017-09-07T00:52:05.687Z,82.10
2017-09-07T00:54:36.311Z,81.80
2017-09-07T00:57:06.972Z,81.80
2017-09-07T00:59:37.569Z,82.20
2017-09-07T01:02:09.390Z,82.80
2017-09-07T01:04:40.421Z,82.80
2017-09-07T01:07:11.056Z,82.70
2017-09-07T01:09:41.572Z,82.50
2017-09-07T01:12:12.177Z,82.40
2017-09-07T01:14:42.838Z,81.90
2017-09-07T01:17:13.636Z,81.20
2017-09-07T01:19:46.211Z,81.40
2017-09-07T01:22:18.540Z,81.00
2017-09-07T01:24:49.119Z,81.00
2017-09-07T01:27:20.512Z,80.60
2017-09-07T01:29:52.040Z,80.70
2017-09-07T01:32:22.671Z,80.70
2017-09-07T01:34:53.383Z,80.30
2017-09-07T01:37:23.912Z,79.70
2017-09-07T01:39:54.544Z,79.20
2017-09-07T01:42:25.206Z,79.10
2017-09-07T01:44:55.759Z,79.00
2017-09-07T01:47:26.362Z,78.70
2017-09-07T01:49:56.793Z,78.00
2017-09-07T01:52:28.500Z,77.30
2017-09-07T01:54:58.996Z,77.00
2017-09-07T01:57:29.622Z,76.80
2017-09-07T02:00:00.258Z,76.10
2017-09-07T02:02:30.863Z,76.00
2017-09-07T02:05:01.872Z,75.60
2017-09-07T02:07:33.193Z,75.00
2017-09-07T02:10:04.030Z,75.10
2017-09-07T02:12:34.989Z,75.00
2017-09-07T02:15:05.567Z,75.10
2017-09-07T02:17:36.108Z,74.70
2017-09-07T02:20:06.705Z,73.10
2017-09-07T02:22:37.835Z,71.40
2017-09-07T02:25:08.420Z,69.90
2017-09-07T02:27:39.055Z,68.90
2017-09-07T02:30:09.681Z,68.60
2017-09-07T02:32:40.242Z,67.50
2017-09-07T02:35:11.928Z,66.90
2017-09-07T02:37:42.536Z,66.70
2017-09-07T02:40:14.114Z,66.10
2017-09-07T02:42:44.657Z,64.90
2017-09-07T02:45:16.121Z,64.90
2017-09-07T02:47:46.728Z,64.80
2017-09-07T02:50:17.342Z,64.30
2017-09-07T02:52:49.693Z,64.10
2017-09-07T02:55:20.589Z,64.10
2017-09-07T02:57:51.115Z,63.50
2017-09-07T03:00:21.713Z,63.20
2017-09-07T03:02:52.330Z,62.90
2017-09-07T03:05:23.263Z,61.80
2017-09-07T03:07:54.144Z,61.30
2017-09-07T03:10:25.355Z,61.40
2017-09-07T03:12:55.979Z,60.90
2017-09-07T03:15:26.623Z,59.90
2017-09-07T03:17:57.216Z,59.60
2017-09-07T03:20:28.724Z,59.70
2017-09-07T03:22:59.626Z,59.20
2017-09-07T03:25:30.156Z,58.90
2017-09-07T03:28:00.699Z,58.70
2017-09-07T03:30:31.300Z,58.50
2017-09-07T03:33:01.823Z,58.70
2017-09-07T03:35:33.967Z,58.50
2017-09-07T03:38:04.770Z,58.30
2017-09-07T03:40:36.818Z,58.40
2017-09-07T03:43:07.415Z,59.00
2017-09-07T03:45:37.996Z,58.80
2017-09-07T03:48:09.432Z,58.90
2017-09-07T03:50:41.721Z,58.20
2017-09-07T03:53:15.158Z,58.50
2017-09-07T03:55:46.118Z,58.40
2017-09-07T03:58:18.306Z,57.30
2017-09-07T04:00:49.538Z,57.30
2017-09-07T04:03:20.444Z,57.20
2017-09-07T04:05:51.308Z,58.20
2017-09-07T04:08:22.627Z,57.10
2017-09-07T04:10:53.498Z,57.10
2017-09-07T04:13:24.733Z,56.90
2017-09-07T04:15:55.371Z,57.10
2017-09-07T04:18:26.007Z,57.50
2017-09-07T04:20:58.105Z,57.30
2017-09-07T04:23:31.023Z,57.00
2017-09-07T04:26:02.088Z,56.70
2017-09-07T04:28:32.885Z,56.50
2017-09-07T04:31:04.089Z,56.10
2017-09-07T04:33:34.667Z,56.90
2017-09-07T04:36:05.251Z,57.00
2017-09-07T04:38:36.068Z,57.30
2017-09-07T04:41:08.511Z,56.80
2017-09-07T04:43:38.987Z,56.70
2017-09-07T04:46:09.678Z,56.40
2017-09-07T04:48:40.210Z,56.00
2017-09-07T04:51:11.659Z,56.30
2017-09-07T04:53:42.628Z,56.60
2017-09-07T04:56:13.228Z,55.80
2017-09-07T04:58:44.202Z,56.00
2017-09-07T05:01:14.851Z,56.60
2017-09-07T05:03:46.379Z,56.70
2017-09-07T05:06:16.955Z,57.00
2017-09-07T05:08:47.530Z,57.30
2017-09-07T05:11:19.334Z,57.20
2017-09-07T05:13:49.903Z,57.10
2017-09-07T05:16:20.466Z,57.30
2017-09-07T05:18:52.127Z,57.20
2017-09-07T05:21:22.673Z,56.60
2017-09-07T05:23:54.405Z,56.50
2017-09-07T05:26:26.184Z,56.60
2017-09-07T05:28:56.824Z,56.80
2017-09-07T05:31:27.366Z,56.40
2017-09-07T05:33:57.891Z,56.30
2017-09-07T05:36:28.492Z,56.30
2017-09-07T05:38:59.104Z,55.80
2017-09-07T05:41:30.757Z,56.10
2017-09-07T05:44:01.353Z,56.10
2017-09-07T05:46:31.958Z,56.00
2017-09-07T05:49:02.731Z,55.70
2017-09-07T05:51:33.224Z,55.70
2017-09-07T05:54:04.030Z,54.90
2017-09-07T05:56:34.513Z,55.50
2017-09-07T05:59:05.511Z,56.30
2017-09-07T06:01:36.049Z,55.90
2017-09-07T06:04:06.662Z,55.30
2017-09-07T06:06:37.120Z,55.20
2017-09-07T06:09:07.849Z,55.10
2017-09-07T06:11:38.680Z,55.40
2017-09-07T06:14:09.266Z,55.30
2017-09-07T06:16:40.117Z,55.10
2017-09-07T06:19:11.472Z,55.70
2017-09-07T06:21:42.007Z,55.20
2017-09-07T06:24:12.609Z,55.20
2017-09-07T06:26:43.939Z,55.30
2017-09-07T06:29:14.827Z,55.30
2017-09-07T06:31:45.326Z,55.70
2017-09-07T06:34:15.954Z,54.70
2017-09-07T06:36:46.528Z,55.10
2017-09-07T06:39:17.064Z,55.20
2017-09-07T06:41:47.784Z,55.40
2017-09-07T06:44:18.425Z,55.00
2017-09-07T06:46:49.381Z,54.20
2017-09-07T06:49:20.042Z,54.10
2017-09-07T06:51:50.791Z,54.80
2017-09-07T06:54:21.404Z,54.70
2017-09-07T06:57:45.814Z,54.70
2017-09-07T07:00:16.564Z,54.30
2017-09-07T07:02:47.163Z,54.00
2017-09-07T07:05:17.709Z,53.60
2017-09-07T07:07:48.334Z,53.30
2017-09-07T07:10:19.225Z,53.90
2017-09-07T07:12:50.210Z,53.90
2017-09-07T07:15:21.510Z,54.70
2017-09-07T07:17:53.077Z,54.70
2017-09-07T07:20:25.253Z,54.20
2017-09-07T07:22:58.607Z,54.40
2017-09-07T07:25:30.545Z,54.30
2017-09-07T07:28:04.265Z,54.50
2017-09-07T07:30:35.197Z,54.30
2017-09-07T07:33:06.587Z,54.60
2017-09-07T07:35:37.385Z,55.40
2017-09-07T07:38:08.079Z,54.80
2017-09-07T07:40:39.490Z,54.70
2017-09-07T07:43:10.443Z,54.70
2017-09-07T07:45:41.030Z,54.70
2017-09-07T07:48:11.824Z,54.70
2017-09-07T07:50:42.449Z,54.20
2017-09-07T07:53:12.967Z,54.20
2017-09-07T07:55:43.525Z,53.90
2017-09-07T07:58:14.142Z,54.40
2017-09-07T08:00:45.560Z,54.30
2017-09-07T08:03:16.023Z,55.20
2017-09-07T08:05:46.643Z,54.80
2017-09-07T08:08:17.188Z,54.70
2017-09-07T08:10:47.763Z,54.90
2017-09-07T08:13:18.495Z,55.00
2017-09-07T08:15:49.072Z,54.90
2017-09-07T08:18:20.135Z,54.80
2017-09-07T08:20:51.525Z,55.20
2017-09-07T08:23:22.115Z,55.00
2017-09-07T08:25:52.626Z,55.20
2017-09-07T08:28:23.232Z,55.30
2017-09-07T08:30:53.953Z,55.20
2017-09-07T08:33:24.520Z,55.80
2017-09-07T08:35:55.066Z,56.30
2017-09-07T08:38:25.572Z,56.20
2017-09-07T08:40:56.150Z,56.20
2017-09-07T08:43:26.748Z,56.10
2017-09-07T08:45:57.339Z,56.50
2017-09-07T08:48:28.264Z,57.10
2017-09-07T08:50:58.780Z,57.50
2017-09-07T08:53:29.310Z,56.80
2017-09-07T08:55:59.793Z,56.60
2017-09-07T08:58:30.319Z,57.20
2017-09-07T09:01:03.063Z,57.40
2017-09-07T09:03:33.533Z,57.50
2017-09-07T09:06:04.202Z,57.50
2017-09-07T09:08:34.819Z,57.80
2017-09-07T09:11:05.294Z,58.10
2017-09-07T09:13:35.902Z,57.90
2017-09-07T09:16:06.455Z,58.00
2017-09-07T09:18:37.307Z,58.40
2017-09-07T09:21:07.650Z,59.40
2017-09-07T09:23:38.481Z,59.30
2017-09-07T09:26:09.044Z,59.40
2017-09-07T09:28:39.551Z,59.80
2017-09-07T09:31:11.348Z,59.80
2017-09-07T09:33:41.897Z,60.50
2017-09-07T09:36:12.763Z,60.10
2017-09-07T09:38:43.287Z,60.10
2017-09-07T09:41:13.847Z,60.70
2017-09-07T09:43:44.385Z,60.70
2017-09-07T09:46:14.963Z,61.70
2017-09-07T09:48:45.871Z,62.70
2017-09-07T09:51:16.449Z,63.20
2017-09-07T09:53:47.055Z,63.50
2017-09-07T09:56:17.646Z,64.00
2017-09-07T09:58:48.243Z,64.40
2017-09-07T10:01:18.706Z,64.60
2017-09-07T10:03:49.277Z,64.50
2017-09-07T10:06:20.254Z,65.10
2017-09-07T10:08:50.750Z,65.70
2017-09-07T10:11:21.296Z,66.10
2017-09-07T10:13:51.859Z,66.20
2017-09-07T10:16:22.368Z,66.50
2017-09-07T10:18:53.903Z,67.40
2017-09-07T10:21:24.487Z,67.40
2017-09-07T10:23:55.347Z,67.40
2017-09-07T10:26:31.040Z,67.20
2017-09-07T10:29:01.652Z,67.20
2017-09-07T10:31:32.127Z,67.80
2017-09-07T10:34:02.653Z,68.10
2017-09-07T10:36:33.495Z,67.80
2017-09-07T10:39:04.176Z,68.50
2017-09-07T10:41:34.667Z,68.70
2017-09-07T10:44:05.241Z,68.90
2017-09-07T10:46:35.825Z,69.40
2017-09-07T10:49:06.646Z,69.60
2017-09-07T10:51:37.142Z,69.80
2017-09-07T10:54:09.143Z,70.30
2017-09-07T10:56:39.720Z,70.30
2017-09-07T10:59:10.310Z,70.60
2017-09-07T11:01:41.011Z,71.10
2017-09-07T11:04:11.618Z,71.50
2017-09-07T11:06:43.366Z,72.30
2017-09-07T11:09:14.081Z,72.00
2017-09-07T11:11:44.592Z,72.50
2017-09-07T11:14:15.244Z,73.20
2017-09-07T11:16:45.835Z,73.30
2017-09-07T11:19:17.252Z,73.60
2017-09-07T11:21:47.867Z,73.60
2017-09-07T11:24:19.659Z,73.90
2017-09-07T11:26:51.055Z,74.20
2017-09-07T11:29:21.647Z,74.20
2017-09-07T11:31:52.503Z,74.20
2017-09-07T11:34:23.044Z,74.90
2017-09-07T11:36:55.349Z,74.50
2017-09-07T11:39:25.959Z,74.60
2017-09-07T11:41:56.517Z,74.60
2017-09-07T11:44:27.161Z,75.30
2017-09-07T11:46:58.569Z,76.30
2017-09-07T11:49:29.426Z,76.30
2017-09-07T11:52:00.016Z,76.60
2017-09-07T11:54:32.450Z,76.80
2017-09-07T11:57:03.149Z,77.10
2017-09-07T11:59:33.763Z,77.20
2017-09-07T12:02:04.394Z,77.40
2017-09-07T12:04:34.904Z,77.60
2017-09-07T12:07:05.655Z,78.40
2017-09-07T12:09:36.247Z,79.10
2017-09-07T12:12:07.597Z,79.60
2017-09-07T12:14:38.102Z,79.70
2017-09-07T12:17:08.707Z,79.60
2017-09-07T12:19:39.311Z,79.50
2017-09-07T12:22:09.858Z,79.30
2017-09-07T12:24:40.742Z,79.60
2017-09-07T12:27:12.006Z,80.30
2017-09-07T12:29:42.489Z,80.20
2017-09-07T12:32:12.999Z,80.50
2017-09-07T12:34:43.549Z,80.50
2017-09-07T12:37:14.414Z,80.40
2017-09-07T12:39:45.706Z,80.50
2017-09-07T12:42:16.531Z,80.50
2017-09-07T12:44:47.108Z,80.70
2017-09-07T12:47:17.669Z,81.00
2017-09-07T12:49:48.136Z,81.20
2017-09-07T12:52:18.725Z,81.20
2017-09-07T12:54:49.414Z,81.70
2017-09-07T12:57:19.902Z,82.00
2017-09-07T12:59:50.468Z,82.30
2017-09-07T13:02:21.043Z,82.60
2017-09-07T13:04:51.666Z,82.70
2017-09-07T13:07:23.422Z,83.30
2017-09-07T13:09:54.016Z,83.20
2017-09-07T13:12:25.102Z,83.40
2017-09-07T13:14:55.744Z,83.50
2017-09-07T13:17:26.259Z,83.50
2017-09-07T13:19:56.837Z,83.60
2017-09-07T13:22:27.325Z,83.90
2017-09-07T13:24:58.964Z,82.80
2017-09-07T13:27:29.564Z,82.70
2017-09-07T13:30:00.440Z,82.20
2017-09-07T13:32:30.997Z,82.00
2017-09-07T13:35:01.633Z,81.80
2017-09-07T13:37:32.178Z,81.70
2017-09-07T13:40:02.657Z,81.40
2017-09-07T13:42:33.572Z,82.30
2017-09-07T13:45:04.161Z,81.40
2017-09-07T13:47:35.546Z,80.70
2017-09-07T13:50:06.002Z,80.90
2017-09-07T13:52:38.241Z,80.50
2017-09-07T13:55:09.327Z,80.50
2017-09-07T13:57:39.908Z,80.80
2017-09-07T14:00:10.667Z,81.20
2017-09-07T14:02:41.173Z,81.20
2017-09-07T14:05:11.872Z,81.20
2017-09-07T14:07:42.304Z,80.80
2017-09-07T14:10:12.812Z,80.20
2017-09-07T14:12:43.814Z,80.20
2017-09-07T14:15:14.378Z,79.90
2017-09-07T14:17:44.880Z,80.00
2017-09-07T14:20:15.324Z,80.10
2017-09-07T14:22:45.852Z,80.20
2017-09-07T14:25:16.664Z,80.80
2017-09-07T14:27:47.259Z,81.20
2017-09-07T14:30:18.021Z,81.80
2017-09-07T14:32:48.557Z,82.20
2017-09-07T14:35:19.161Z,82.30
2017-09-07T14:37:49.736Z,82.70
2017-09-07T14:40:20.305Z,82.80
2017-09-07T14:42:51.043Z,83.10
2017-09-07T14:45:21.574Z,83.30
2017-09-07T14:47:52.388Z,83.50
2017-09-07T14:50:23.189Z,83.90
2017-09-07T14:52:54.610Z,84.10
2017-09-07T14:55:25.225Z,84.10
2017-09-07T14:57:56.058Z,84.10
2017-09-07T15:00:26.808Z,84.20
2017-09-07T15:02:57.320Z,84.40
2017-09-07T15:05:27.867Z,84.50
2017-09-07T15:07:58.392Z,84.30
2017-09-07T15:10:29.005Z,84.40
2017-09-07T15:13:00.014Z,84.60
2017-09-07T15:15:30.563Z,84.70
2017-09-07T15:18:01.452Z,84.70
2017-09-07T15:20:31.958Z,84.80
2017-09-07T15:23:02.533Z,84.90
2017-09-07T15:25:33.053Z,85.20
2017-09-07T15:28:04.492Z,85.70
2017-09-07T15:30:35.487Z,85.70
2017-09-07T15:33:10.067Z,85.80
2017-09-07T15:35:51.829Z,86.00
2017-09-07T15:38:22.525Z,86.00
2017-09-07T15:40:53.140Z,85.90
2017-09-07T15:43:24.168Z,85.70
2017-09-07T15:45:55.497Z,85.10
2017-09-07T15:48:26.450Z,85.10
2017-09-07T15:50:56.948Z,85.20
2017-09-07T15:53:27.404Z,85.60
2017-09-07T15:55:58.000Z,85.80
2017-09-07T15:58:28.644Z,85.80
2017-09-07T16:00:59.513Z,85.80
2017-09-07T16:03:30.186Z,85.80
2017-09-07T16:06:00.897Z,85.80
2017-09-07T16:08:31.428Z,85.90
2017-09-07T16:11:01.968Z,86.30
2017-09-07T16:13:32.504Z,86.70
2017-09-07T16:16:03.104Z,86.80
2017-09-07T16:18:34.097Z,87.00
2017-09-07T16:21:04.655Z,87.00
2017-09-07T16:23:35.243Z,86.90
2017-09-07T16:26:05.853Z,86.80
2017-09-07T16:28:36.480Z,86.80
2017-09-07T16:31:07.432Z,86.80
2017-09-07T16:33:37.904Z,86.60
2017-09-07T16:36:08.956Z,86.50
2017-09-07T16:38:39.456Z,86.40
2017-09-07T16:41:10.088Z,86.60
2017-09-07T16:43:40.700Z,86.70
2017-09-07T16:46:11.331Z,87.00
2017-09-07T16:48:42.318Z,87.00
2017-09-07T16:51:12.832Z,86.80
2017-09-07T16:53:43.404Z,86.70
2017-09-07T16:56:13.988Z,86.60
2017-09-07T16:58:44.545Z,86.60
2017-09-07T17:01:16.405Z,86.10
2017-09-07T17:03:47.269Z,86.10
2017-09-07T17:06:18.349Z,85.80
2017-09-07T17:08:48.918Z,85.70
2017-09-07T17:11:19.477Z,85.60
2017-09-07T17:13:50.041Z,85.50
2017-09-07T17:16:20.604Z,85.60
2017-09-07T17:18:52.260Z,86.70
2017-09-07T17:21:22.861Z,86.70
2017-09-07T17:23:55.013Z,86.90
2017-09-07T17:26:25.555Z,86.90
2017-09-07T17:28:56.166Z,87.00
2017-09-07T17:31:26.685Z,87.00
2017-09-07T17:33:58.169Z,88.10
2017-09-07T17:36:29.267Z,87.90
2017-09-07T17:38:59.838Z,88.10
2017-09-07T17:41:30.386Z,88.00
2017-09-07T17:44:01.745Z,87.80
2017-09-07T17:46:32.329Z,87.80
2017-09-07T17:49:03.273Z,87.80
2017-09-07T17:51:33.754Z,87.30
2017-09-07T17:54:04.665Z,87.50
2017-09-07T17:56:35.973Z,87.20
2017-09-07T17:59:06.468Z,87.10
2017-09-07T18:01:37.016Z,87.10
2017-09-07T18:04:07.556Z,86.70
2017-09-07T18:06:38.322Z,86.60
2017-09-07T18:09:08.893Z,86.60
2017-09-07T18:11:39.524Z,86.50
2017-09-07T18:14:10.095Z,86.40
2017-09-07T18:16:40.581Z,86.20
2017-09-07T18:19:11.393Z,86.00
2017-09-07T18:21:41.851Z,85.90
2017-09-07T18:24:12.740Z,86.00
2017-09-07T18:26:43.389Z,86.30
2017-09-07T18:29:14.278Z,86.50
2017-09-07T18:31:44.890Z,86.60
2017-09-07T18:34:15.348Z,86.60
2017-09-07T18:36:47.321Z,87.00
2017-09-07T18:39:18.675Z,87.20
2017-09-07T18:41:49.214Z,87.00
2017-09-07T18:44:19.719Z,86.70
2017-09-07T18:46:50.315Z,86.80
2017-09-07T18:49:20.979Z,87.00
2017-09-07T18:51:51.519Z,87.10
2017-09-07T18:54:22.344Z,87.20
2017-09-07T18:56:52.844Z,87.30
2017-09-07T18:59:23.412Z,87.30
2017-09-07T19:01:53.979Z,87.40
2017-09-07T19:04:24.445Z,87.80
2017-09-07T19:06:55.192Z,87.50
2017-09-07T19:09:25.697Z,86.80
2017-09-07T19:11:57.514Z,86.60
2017-09-07T19:14:28.877Z,86.80
2017-09-07T19:16:59.401Z,86.80
2017-09-07T19:19:29.871Z,87.00
2017-09-07T19:22:00.308Z,87.10
2017-09-07T19:24:31.285Z,87.00
2017-09-07T19:27:01.750Z,86.60
2017-09-07T19:29:32.324Z,86.80
2017-09-07T19:32:02.906Z,87.20
2017-09-07T19:34:33.452Z,87.30
2017-09-07T19:37:04.445Z,87.40
2017-09-07T19:39:35.061Z,87.40
2017-09-07T19:42:06.948Z,87.30
2017-09-07T19:44:37.477Z,87.00
2017-09-07T19:47:07.920Z,86.40
2017-09-07T19:49:38.529Z,86.30
2017-09-07T19:52:09.938Z,87.60
2017-09-07T19:54:40.957Z,87.50
2017-09-07T19:57:11.371Z,87.50
2017-09-07T19:59:41.901Z,87.40
2017-09-07T20:02:12.405Z,87.10
2017-09-07T20:04:43.034Z,87.50
2017-09-07T20:07:14.740Z,87.60
2017-09-07T20:09:45.492Z,87.60
2017-09-07T20:12:16.323Z,87.20
2017-09-07T20:14:46.929Z,87.50
2017-09-07T20:17:17.442Z,87.80
2017-09-07T20:19:47.945Z,87.80
2017-09-07T20:22:18.531Z,88.00
2017-09-07T20:24:49.488Z,88.20
2017-09-07T20:27:20.018Z,88.40
2017-09-07T20:29:50.881Z,88.60
2017-09-07T20:32:21.416Z,89.40
2017-09-07T20:34:52.431Z,88.60
2017-09-07T20:37:22.958Z,88.60
2017-09-07T20:39:53.551Z,88.70
2017-09-07T20:42:24.458Z,88.90
2017-09-07T20:44:54.999Z,89.00
2017-09-07T20:47:25.544Z,89.10
2017-09-07T20:49:56.130Z,89.30
2017-09-07T20:52:26.637Z,89.40
2017-09-07T20:54:58.689Z,89.60
2017-09-07T20:57:29.253Z,89.50
2017-09-07T21:00:00.917Z,89.60
2017-09-07T21:02:33.125Z,89.80
2017-09-07T21:05:03.897Z,89.80
2017-09-07T21:07:34.472Z,89.70
2017-09-07T21:10:05.077Z,89.40
2017-09-07T21:12:36.008Z,89.20
2017-09-07T21:15:06.458Z,89.30
2017-09-07T21:17:37.030Z,89.50
2017-09-07T21:20:07.499Z,89.70
2017-09-07T21:22:38.135Z,89.90
2017-09-07T21:25:09.744Z,90.20
2017-09-07T21:27:41.136Z,90.20
2017-09-07T21:30:13.711Z,90.20
2017-09-07T21:32:44.236Z,90.20
2017-09-07T21:35:14.984Z,90.20
2017-09-07T21:37:46.429Z,90.10
2017-09-07T21:40:16.978Z,90.10
2017-09-07T21:42:48.107Z,90.10
2017-09-07T21:45:18.660Z,90.10
2017-09-07T21:47:49.256Z,90.10
2017-09-07T21:50:20.549Z,90.20
2017-09-07T21:52:51.126Z,90.20
2017-09-07T21:55:21.745Z,90.20
2017-09-07T21:57:52.399Z,90.30
2017-09-07T22:00:23.330Z,90.40
2017-09-07T22:02:53.962Z,90.50
2017-09-07T22:05:24.431Z,90.50
2017-09-07T22:07:55.023Z,90.40
2017-09-07T22:10:25.704Z,90.30
2017-09-07T22:12:56.629Z,90.20
2017-09-07T22:15:27.243Z,90.20
2017-09-07T22:17:58.168Z,90.20
2017-09-07T22:20:28.679Z,90.20
2017-09-07T22:22:59.942Z,90.30
2017-09-07T22:25:30.764Z,90.20
2017-09-07T22:28:01.285Z,90.20
2017-09-07T22:30:32.949Z,90.30
2017-09-07T22:33:04.884Z,90.40
2017-09-07T22:35:35.365Z,90.40
2017-09-07T22:38:05.991Z,90.30
2017-09-07T22:40:36.886Z,90.30
2017-09-07T22:43:07.466Z,90.40
2017-09-07T22:45:38.056Z,90.40
2017-09-07T22:48:08.743Z,90.40
2017-09-07T22:50:39.330Z,90.60
2017-09-07T22:53:10.636Z,90.70
2017-09-07T22:55:41.240Z,90.60
2017-09-07T22:58:11.721Z,90.60
2017-09-07T23:00:42.673Z,90.50
2017-09-07T23:03:13.164Z,90.40
2017-09-07T23:05:44.216Z,90.30
2017-09-07T23:08:15.041Z,90.30
2017-09-07T23:10:45.525Z,90.10
2017-09-07T23:13:16.217Z,90.10
2017-09-07T23:15:46.732Z,90.20
2017-09-07T23:18:17.822Z,90.30
2017-09-07T23:20:49.406Z,90.30
2017-09-07T23:23:20.003Z,90.40
2017-09-07T23:25:51.356Z,90.40
2017-09-07T23:28:22.063Z,90.50
2017-09-07T23:30:53.827Z,90.50
2017-09-07T23:33:24.314Z,90.50
2017-09-07T23:35:55.406Z,90.50
2017-09-07T23:38:26.001Z,90.50
2017-09-07T23:40:56.579Z,90.60
2017-09-07T23:43:27.707Z,90.70
2017-09-07T23:45:58.262Z,90.60
2017-09-07T23:48:30.197Z,90.70
2017-09-07T23:51:00.779Z,90.70
2017-09-07T23:53:31.387Z,90.60
2017-09-07T23:56:01.984Z,90.50
2017-09-07T23:58:32.558Z,90.40
